Time;durP1;ratioP1;P1;durP2;ratioP2;P2;SDS_P1;SDS_P2;PMS_P1;PMS_P2;Temp;Humidity;BMP_temperature;BMP_pressure;BME280_temperature;BME280_humidity;BME280_pressure;Samples;Min_cycle;Max_cycle;Signal;HPM_P1;HPM_P2
2022/02/02 00:00:14;;;;;;;;;;;5.00;99.90;5.30;100491.00;;;;337480;28;83668;-87
2022/02/02 00:00:26;;;;;;;;;;;5.00;99.90;5.40;100483.00;;;;337574;28;84876;-87
2022/02/02 00:00:38;;;;;;;;;;;5.00;99.90;5.30;100483.00;;;;336308;28;83503;-87
2022/02/02 00:00:51;;;;;;;;;;;5.00;99.90;5.30;100477.00;;;;334460;29;88265;-87
2022/02/02 00:01:05;;;;;;;;;;;5.00;99.90;5.30;100486.00;;;;337544;28;83531;-87
2022/02/02 00:01:21;;;;;;;;;;;5.00;99.90;5.40;100490.00;;;;336153;28;87352;-87
2022/02/02 00:02:03;;;;;;;;;;;5.00;99.90;5.50;100484.00;;;;334964;29;83437;-87
2022/02/02 00:02:48;;;;;;;;;;;5.00;99.90;5.60;100480.00;;;;336234;29;85071;-86
2022/02/02 00:03:07;;;;;;;;;;;5.00;99.90;5.60;100465.00;;;;337703;28;83332;-87
2022/02/02 00:03:22;;;;;;;;;;;5.00;99.90;5.60;100470.00;;;;337494;28;86156;-86
2022/02/02 00:03:33;;;;;;;;;;;5.00;99.90;5.60;100474.00;;;;337569;28;83245;-87
2022/02/02 00:03:51;;;;;;;;;;;5.00;99.90;5.70;100477.00;;;;338753;28;86016;-87
2022/02/02 00:04:05;;;;;;;;;;;5.10;99.90;5.70;100474.00;;;;338809;28;83288;-87
2022/02/02 00:04:22;;;;;;;;;;;5.10;99.90;5.70;100475.00;;;;338772;28;85683;-87
2022/02/02 00:04:36;;;;;;;;;;;5.10;99.90;5.80;100473.00;;;;338882;28;82312;-87
2022/02/02 00:04:52;;;;;;;;;;;5.10;99.90;5.70;100473.00;;;;337465;28;84806;-87
2022/02/02 00:05:18;;;;;;;;;;;5.10;99.90;5.60;100474.00;;;;334720;29;83355;-87
2022/02/02 00:05:41;;;;;;;;;;;5.10;99.90;5.50;100475.00;;;;337533;28;85015;-86
2022/02/02 00:06:48;;;;;;;;;;;5.10;99.90;5.70;100480.00;;;;333524;29;85158;-87
2022/02/02 00:07:10;;;;;;;;;;;5.10;99.90;5.80;100479.00;;;;334378;29;83410;-87
2022/02/02 00:07:35;;;;;;;;;;;5.10;99.90;5.80;100476.00;;;;336003;29;88451;-87
2022/02/02 00:08:13;;;;;;;;;;;5.10;99.90;5.70;100483.00;;;;333741;29;83173;-87
2022/02/02 00:08:57;;;;;;;;;;;5.20;99.90;5.80;100476.00;;;;338813;28;83373;-87
2022/02/02 00:09:12;;;;;;;;;;;5.20;99.90;5.60;100480.00;;;;338461;28;87502;-86
2022/02/02 00:09:24;;;;;;;;;;;5.20;99.90;5.60;100480.00;;;;335077;29;83496;-86
2022/02/02 00:09:37;;;;;;;;;;;5.20;99.90;5.60;100482.00;;;;334913;29;86900;-86
2022/02/02 00:09:54;;;;;;;;;;;5.20;99.90;5.50;100478.00;;;;336963;28;83250;-87
2022/02/02 00:10:33;;;;;;;;;;;5.20;99.90;5.50;100476.00;;;;334990;29;83970;-86
2022/02/02 00:12:09;;;;;;;;;;;5.20;99.90;5.50;100487.00;;;;333454;29;83848;-87
2022/02/02 00:12:24;;;;;;;;;;;5.20;99.90;5.50;100487.00;;;;334739;29;83628;-87
2022/02/02 00:12:46;;;;;;;;;;;5.10;99.90;5.60;100481.00;;;;333535;29;87088;-87
2022/02/02 00:13:12;;;;;;;;;;;5.10;99.90;5.50;100481.00;;;;332151;29;83529;-87
2022/02/02 00:13:55;;;;;;;;;;;5.10;99.90;5.50;100482.00;;;;332266;29;85210;-87
2022/02/02 00:15:07;;;;;;;;;;;5.10;99.90;5.40;100477.00;;;;333535;29;83277;-87
2022/02/02 00:16:00;;;;;;;;;;;5.10;99.90;5.40;100478.00;;;;331110;29;83303;-87
2022/02/02 00:17:34;;;;;;;;;;;5.10;99.90;5.60;100472.00;;;;333238;29;83604;-87
2022/02/02 00:19:07;;;;;;;;;;;5.10;99.90;5.40;100476.00;;;;333468;29;82773;-87
2022/02/02 00:20:29;;;;;;;;;;;5.00;99.90;5.60;100461.00;;;;351230;27;83445;-86
2022/02/02 00:20:55;;;;;;;;;;;5.00;99.90;5.60;100468.00;;;;348453;27;85723;-87
2022/02/02 00:21:17;;;;;;;;;;;5.00;99.90;5.50;100463.00;;;;348403;27;83278;-87
2022/02/02 00:21:44;;;;;;;;;;;5.00;99.90;5.40;100461.00;;;;346998;28;88420;-87
2022/02/02 00:22:01;;;;;;;;;;;5.00;99.90;5.40;100464.00;;;;346482;28;83663;-87
2022/02/02 00:22:27;;;;;;;;;;;5.00;99.90;5.40;100463.00;;;;342831;28;86059;-87
2022/02/02 00:22:41;;;;;;;;;;;5.00;99.90;5.50;100468.00;;;;344238;28;83417;-87
2022/02/02 00:22:57;;;;;;;;;;;5.00;99.90;5.50;100457.00;;;;348128;27;86515;-87
2022/02/02 00:23:16;;;;;;;;;;;5.00;99.90;5.50;100460.00;;;;345601;28;83587;-87
2022/02/02 00:23:34;;;;;;;;;;;5.00;99.90;5.50;100468.00;;;;344336;28;86658;-87
2022/02/02 00:23:50;;;;;;;;;;;5.00;99.90;5.50;100462.00;;;;344340;28;83548;-87
2022/02/02 00:24:07;;;;;;;;;;;5.00;99.90;5.50;100465.00;;;;347151;28;86198;-87
2022/02/02 00:24:32;;;;;;;;;;;5.00;99.90;5.50;100454.00;;;;345803;28;82553;-87
2022/02/02 00:25:11;;;;;;;;;;;5.00;99.90;5.50;100453.00;;;;345782;28;82391;-87
2022/02/02 00:25:31;;;;;;;;;;;5.10;99.90;5.50;100462.00;;;;343949;28;85490;-86
2022/02/02 00:25:50;;;;;;;;;;;5.10;99.90;5.40;100453.00;;;;342966;28;82435;-87
2022/02/02 00:26:08;;;;;;;;;;;5.00;99.90;5.40;100461.00;;;;343045;28;83833;-87
2022/02/02 00:26:26;;;;;;;;;;;5.00;99.90;5.50;100464.00;;;;344335;28;83305;-87
2022/02/02 00:26:42;;;;;;;;;;;5.00;99.90;5.50;100457.00;;;;345683;28;83922;-87
2022/02/02 00:26:57;;;;;;;;;;;5.00;99.90;5.50;100451.00;;;;345631;28;83508;-87
2022/02/02 00:27:12;;;;;;;;;;;5.00;99.90;5.50;100451.00;;;;344252;28;87242;-87
2022/02/02 00:27:25;;;;;;;;;;;5.00;99.90;5.50;100457.00;;;;344384;28;83356;-87
2022/02/02 00:27:38;;;;;;;;;;;5.00;99.90;5.60;100444.00;;;;342622;28;84527;-87
2022/02/02 00:27:55;;;;;;;;;;;5.00;99.90;5.60;100451.00;;;;345675;28;82413;-86
2022/02/02 00:28:07;;;;;;;;;;;5.10;99.90;5.70;100454.00;;;;347586;27;88201;-87
2022/02/02 00:28:23;;;;;;;;;;;5.00;99.90;5.70;100452.00;;;;345750;28;83299;-87
2022/02/02 00:28:40;;;;;;;;;;;5.10;99.90;5.60;100446.00;;;;346889;28;86908;-87
2022/02/02 00:28:57;;;;;;;;;;;5.10;99.90;5.60;100441.00;;;;345642;28;82496;-87
2022/02/02 00:29:17;;;;;;;;;;;5.10;99.90;5.60;100452.00;;;;345720;28;86400;-87
2022/02/02 00:29:35;;;;;;;;;;;5.10;99.90;5.60;100447.00;;;;347190;28;83285;-87
2022/02/02 00:29:52;;;;;;;;;;;5.10;99.90;5.50;100447.00;;;;344171;28;85511;-87
2022/02/02 00:30:06;;;;;;;;;;;5.10;99.90;5.50;100456.00;;;;344340;28;83275;-86
2022/02/02 00:30:20;;;;;;;;;;;5.10;99.90;5.40;100456.00;;;;345665;28;85005;-87
2022/02/02 00:30:37;;;;;;;;;;;5.10;99.90;5.50;100447.00;;;;342982;28;83346;-87
2022/02/02 00:30:48;;;;;;;;;;;5.10;99.90;5.50;100456.00;;;;345401;28;87217;-87
2022/02/02 00:31:05;;;;;;;;;;;5.10;99.90;5.50;100456.00;;;;343753;28;83566;-87
2022/02/02 00:31:22;;;;;;;;;;;5.10;99.90;5.50;100441.00;;;;345456;28;88145;-87
2022/02/02 00:31:40;;;;;;;;;;;5.10;99.90;5.50;100452.00;;;;347168;28;82562;-87
2022/02/02 00:32:02;;;;;;;;;;;5.10;99.90;5.60;100452.00;;;;347211;27;87081;-87
2022/02/02 00:33:20;;;;;;;;;;;5.10;99.90;5.50;100454.00;;;;348465;27;86432;-87
2022/02/02 00:33:38;;;;;;;;;;;5.10;99.90;5.50;100445.00;;;;348405;27;82270;-87
2022/02/02 00:34:12;;;;;;;;;;;5.10;99.90;5.50;100444.00;;;;346491;28;87602;-87
2022/02/02 00:34:27;;;;;;;;;;;5.10;99.90;5.60;100438.00;;;;346624;28;83731;-87
2022/02/02 00:34:39;;;;;;;;;;;5.10;99.90;5.50;100444.00;;;;345747;28;84523;-87
2022/02/02 00:34:51;;;;;;;;;;;5.10;99.90;5.60;100444.00;;;;346947;28;82616;-87
2022/02/02 00:35:04;;;;;;;;;;;5.10;99.90;5.50;100441.00;;;;345704;28;85581;-87
2022/02/02 00:35:20;;;;;;;;;;;5.10;99.90;5.60;100433.00;;;;345664;28;83494;-87
2022/02/02 00:35:37;;;;;;;;;;;5.10;99.90;5.60;100437.00;;;;348421;27;87267;-87
2022/02/02 00:36:12;;;;;;;;;;;5.10;99.90;5.50;100444.00;;;;345546;28;83261;-87
2022/02/02 00:36:30;;;;;;;;;;;5.10;99.90;5.40;100444.00;;;;345768;28;85835;-87
2022/02/02 00:36:49;;;;;;;;;;;5.10;99.90;5.40;100442.00;;;;349964;27;83329;-87
2022/02/02 00:37:01;;;;;;;;;;;5.10;99.90;5.40;100437.00;;;;344010;28;88278;-87
2022/02/02 00:37:15;;;;;;;;;;;5.10;99.90;5.40;100440.00;;;;344236;28;83422;-87
2022/02/02 00:37:27;;;;;;;;;;;5.10;99.90;5.50;100443.00;;;;345576;28;83790;-86
2022/02/02 00:37:39;;;;;;;;;;;5.10;99.90;5.50;100436.00;;;;344343;28;82291;-87
2022/02/02 00:37:51;;;;;;;;;;;5.10;99.90;5.50;100439.00;;;;344205;28;86345;-87
2022/02/02 00:38:02;;;;;;;;;;;5.10;99.90;5.50;100445.00;;;;345383;28;83433;-87
2022/02/02 00:38:14;;;;;;;;;;;5.10;99.90;5.50;100442.00;;;;344160;28;84990;-87
2022/02/02 00:38:26;;;;;;;;;;;5.10;99.90;5.50;100435.00;;;;344363;28;83377;-87
2022/02/02 00:38:38;;;;;;;;;;;5.10;99.90;5.50;100433.00;;;;342910;28;84749;-87
2022/02/02 00:38:49;;;;;;;;;;;5.10;99.90;5.50;100434.00;;;;343030;28;84207;-87
2022/02/02 00:39:02;;;;;;;;;;;5.10;99.90;5.50;100433.00;;;;345610;28;87238;-87
2022/02/02 00:39:14;;;;;;;;;;;5.10;99.90;5.50;100436.00;;;;344318;28;83227;-87
2022/02/02 00:39:26;;;;;;;;;;;5.10;99.90;5.60;100434.00;;;;344212;28;87695;-87
2022/02/02 00:39:38;;;;;;;;;;;5.10;99.90;5.70;100437.00;;;;344446;28;83313;-87
2022/02/02 00:39:50;;;;;;;;;;;5.10;99.90;5.70;100434.00;;;;345120;28;87882;-87
2022/02/02 00:40:02;;;;;;;;;;;5.10;99.90;5.70;100440.00;;;;348166;27;82510;-87
2022/02/02 00:40:14;;;;;;;;;;;5.10;99.90;5.70;100440.00;;;;344155;28;87409;-87
2022/02/02 00:40:25;;;;;;;;;;;5.10;99.90;5.70;100438.00;;;;344381;28;82468;-87
2022/02/02 00:40:37;;;;;;;;;;;5.10;99.90;5.70;100439.00;;;;348408;27;83261;-87
2022/02/02 00:40:49;;;;;;;;;;;5.10;99.90;5.60;100443.00;;;;347098;28;83430;-87
2022/02/02 00:41:01;;;;;;;;;;;5.10;99.90;5.60;100431.00;;;;344320;28;86202;-87
2022/02/02 00:41:13;;;;;;;;;;;5.20;99.90;5.60;100431.00;;;;342808;28;83473;-87
2022/02/02 00:41:25;;;;;;;;;;;5.10;99.90;5.60;100427.00;;;;345658;28;86523;-87
2022/02/02 00:41:36;;;;;;;;;;;5.10;99.90;5.60;100435.00;;;;345558;28;82677;-87
2022/02/02 00:41:48;;;;;;;;;;;5.10;99.90;5.60;100433.00;;;;346782;28;87464;-87
2022/02/02 00:42:02;;;;;;;;;;;5.10;99.90;5.50;100432.00;;;;347022;28;83350;-87
2022/02/02 00:42:13;;;;;;;;;;;5.10;99.90;5.50;100433.00;;;;344216;28;86385;-87
2022/02/02 00:42:29;;;;;;;;;;;5.10;99.90;5.50;100430.00;;;;346902;28;83552;-87
2022/02/02 00:42:44;;;;;;;;;;;5.10;99.90;5.50;100441.00;;;;347084;28;85082;-87
2022/02/02 00:42:56;;;;;;;;;;;5.10;99.90;5.50;100433.00;;;;345228;28;83583;-87
2022/02/02 00:43:08;;;;;;;;;;;5.10;99.90;5.50;100438.00;;;;345457;28;87027;-87
2022/02/02 00:43:20;;;;;;;;;;;5.10;99.90;5.50;100442.00;;;;348415;27;82486;-87
2022/02/02 00:43:58;;;;;;;;;;;5.10;99.90;5.70;100435.00;;;;346461;28;87029;-87
2022/02/02 00:44:14;;;;;;;;;;;5.10;99.90;5.70;100440.00;;;;346803;28;82771;-87
2022/02/02 00:44:26;;;;;;;;;;;5.10;99.90;5.70;100443.00;;;;342851;28;87214;-87
2022/02/02 00:44:42;;;;;;;;;;;5.10;99.90;5.70;100441.00;;;;344231;28;83495;-87
2022/02/02 00:44:56;;;;;;;;;;;5.20;99.90;5.70;100436.00;;;;344203;28;87495;-87
2022/02/02 00:45:08;;;;;;;;;;;5.20;99.90;5.80;100439.00;;;;344282;28;83354;-87
2022/02/02 00:45:20;;;;;;;;;;;5.20;99.90;5.70;100436.00;;;;345710;28;84802;-87
2022/02/02 00:45:42;;;;;;;;;;;5.10;99.90;5.70;100436.00;;;;344196;28;83204;-87
2022/02/02 00:45:54;;;;;;;;;;;5.20;99.90;5.70;100433.00;;;;344671;28;86172;-87
2022/02/02 00:46:06;;;;;;;;;;;5.20;99.90;5.70;100435.00;;;;346902;28;83459;-87
2022/02/02 00:46:23;;;;;;;;;;;5.10;99.90;5.70;100432.00;;;;345604;28;85725;-87
2022/02/02 00:46:35;;;;;;;;;;;5.20;99.90;5.60;100439.00;;;;345467;28;83436;-87
2022/02/02 00:46:47;;;;;;;;;;;5.10;99.90;5.60;100441.00;;;;345637;28;87056;-87
2022/02/02 00:46:58;;;;;;;;;;;5.20;99.90;5.50;100428.00;;;;343907;28;83495;-87
2022/02/02 00:47:16;;;;;;;;;;;5.20;99.90;5.60;100441.00;;;;345599;28;85497;-87
2022/02/02 00:47:35;;;;;;;;;;;5.10;99.90;5.70;100442.00;;;;344299;28;82478;-87
2022/02/02 00:47:51;;;;;;;;;;;5.10;99.90;5.60;100443.00;;;;346927;28;85975;-87
2022/02/02 00:48:04;;;;;;;;;;;5.20;99.90;5.70;100431.00;;;;347174;28;82625;-86
2022/02/02 00:48:17;;;;;;;;;;;5.10;99.90;5.70;100440.00;;;;342895;28;87093;-87
2022/02/02 00:48:32;;;;;;;;;;;5.20;99.90;5.70;100438.00;;;;347021;28;83270;-87
2022/02/02 00:48:48;;;;;;;;;;;5.20;99.90;5.70;100441.00;;;;348359;27;87759;-87
2022/02/02 00:49:02;;;;;;;;;;;5.20;99.90;5.80;100439.00;;;;346823;28;83515;-87
2022/02/02 00:49:14;;;;;;;;;;;5.10;99.90;5.80;100438.00;;;;345527;28;83022;-87
2022/02/02 00:49:26;;;;;;;;;;;5.10;99.90;5.70;100440.00;;;;347811;27;83411;-87
2022/02/02 00:49:37;;;;;;;;;;;5.10;99.90;5.80;100437.00;;;;349805;27;85022;-87
2022/02/02 00:49:51;;;;;;;;;;;5.20;99.90;5.80;100438.00;;;;348420;27;83251;-87
2022/02/02 00:50:03;;;;;;;;;;;5.20;99.90;5.70;100439.00;;;;345581;28;86129;-87
2022/02/02 00:50:15;;;;;;;;;;;5.20;99.90;5.80;100437.00;;;;344313;28;83303;-87
2022/02/02 00:50:27;;;;;;;;;;;5.20;99.90;5.90;100443.00;;;;344057;28;88431;-87
2022/02/02 00:50:39;;;;;;;;;;;5.20;99.90;5.90;100433.00;;;;345736;28;82295;-86
2022/02/02 00:50:51;;;;;;;;;;;5.20;99.90;5.90;100436.00;;;;348356;27;87298;-87
2022/02/02 00:51:03;;;;;;;;;;;5.20;99.90;5.90;100444.00;;;;344227;28;83613;-87
2022/02/02 00:51:19;;;;;;;;;;;5.20;99.90;5.80;100440.00;;;;344067;28;87687;-87
2022/02/02 00:51:46;;;;;;;;;;;5.20;99.90;5.90;100442.00;;;;348572;27;82292;-87
2022/02/02 00:51:59;;;;;;;;;;;5.30;99.90;5.90;100439.00;;;;345126;28;89458;-87
2022/02/02 00:52:11;;;;;;;;;;;5.20;99.90;5.90;100431.00;;;;346851;28;83513;-87
2022/02/02 00:52:23;;;;;;;;;;;5.20;99.90;5.90;100430.00;;;;345375;28;87979;-87
2022/02/02 00:52:35;;;;;;;;;;;5.30;99.90;5.90;100433.00;;;;342964;28;83471;-87
2022/02/02 00:52:51;;;;;;;;;;;5.30;99.90;5.80;100433.00;;;;342723;28;84483;-86
2022/02/02 00:53:03;;;;;;;;;;;5.30;99.90;5.70;100440.00;;;;344424;28;83309;-87
2022/02/02 00:53:14;;;;;;;;;;;5.20;99.90;5.70;100437.00;;;;346798;28;87147;-87
2022/02/02 00:53:26;;;;;;;;;;;5.20;99.90;5.70;100426.00;;;;345726;28;83540;-87
2022/02/02 00:53:38;;;;;;;;;;;5.20;99.90;5.60;100434.00;;;;345535;28;87621;-87
2022/02/02 00:53:50;;;;;;;;;;;5.20;99.90;5.60;100425.00;;;;345637;28;82425;-87
2022/02/02 00:54:02;;;;;;;;;;;5.20;99.90;5.60;100432.00;;;;345468;28;87097;-87
2022/02/02 00:54:16;;;;;;;;;;;5.20;99.90;5.70;100439.00;;;;344219;28;83440;-87
2022/02/02 00:54:28;;;;;;;;;;;5.30;99.90;5.70;100433.00;;;;346828;28;87284;-87
2022/02/02 00:54:40;;;;;;;;;;;5.20;99.90;5.70;100436.00;;;;347070;28;82537;-87
2022/02/02 00:54:52;;;;;;;;;;;5.20;99.90;5.80;100438.00;;;;345925;28;86116;-87
2022/02/02 00:55:04;;;;;;;;;;;5.20;99.90;5.70;100444.00;;;;347116;27;83537;-87
2022/02/02 00:55:17;;;;;;;;;;;5.20;99.90;5.70;100438.00;;;;346936;28;84324;-87
2022/02/02 00:55:28;;;;;;;;;;;5.30;99.90;5.80;100447.00;;;;344290;28;83464;-87
2022/02/02 00:55:40;;;;;;;;;;;5.20;99.90;5.80;100436.00;;;;344183;28;87856;-87
2022/02/02 00:55:54;;;;;;;;;;;5.20;99.90;5.90;100440.00;;;;345900;28;83285;-87
2022/02/02 00:56:05;;;;;;;;;;;5.30;99.90;6.00;100437.00;;;;348369;27;86563;-87
2022/02/02 00:56:17;;;;;;;;;;;5.30;99.90;6.00;100443.00;;;;345706;28;82410;-87
2022/02/02 00:56:29;;;;;;;;;;;5.30;99.90;6.00;100446.00;;;;348179;27;89121;-87
2022/02/02 00:56:41;;;;;;;;;;;5.30;99.90;6.00;100446.00;;;;346804;28;82398;-87
2022/02/02 00:56:52;;;;;;;;;;;5.30;99.90;6.10;100438.00;;;;346953;28;84669;-87
2022/02/02 00:57:04;;;;;;;;;;;5.30;99.90;6.10;100444.00;;;;347195;28;83175;-87
2022/02/02 00:57:16;;;;;;;;;;;5.30;99.90;6.10;100438.00;;;;347024;28;84363;-87
2022/02/02 00:57:29;;;;;;;;;;;5.30;99.90;6.10;100439.00;;;;344365;28;82359;-87
2022/02/02 00:57:40;;;;;;;;;;;5.40;99.90;6.10;100441.00;;;;346953;28;85144;-87
2022/02/02 00:57:52;;;;;;;;;;;5.40;99.90;6.10;100448.00;;;;347883;27;83623;-86
2022/02/02 00:58:04;;;;;;;;;;;5.40;99.90;6.10;100443.00;;;;348474;27;84598;-87
2022/02/02 00:58:16;;;;;;;;;;;5.40;99.90;6.00;100436.00;;;;344339;28;83370;-87
2022/02/02 00:58:27;;;;;;;;;;;5.40;99.90;6.00;100446.00;;;;345348;28;87256;-87
2022/02/02 00:58:39;;;;;;;;;;;5.40;99.90;6.00;100443.00;;;;345693;28;83357;-87
2022/02/02 00:58:51;;;;;;;;;;;5.40;99.90;6.10;100439.00;;;;345620;28;86171;-87
2022/02/02 00:59:02;;;;;;;;;;;5.40;99.90;6.00;100441.00;;;;345623;28;83490;-87
2022/02/02 00:59:14;;;;;;;;;;;5.40;99.90;6.10;100427.00;;;;346907;28;85509;-87
2022/02/02 00:59:26;;;;;;;;;;;5.40;99.90;6.10;100438.00;;;;346826;28;82488;-87
2022/02/02 00:59:38;;;;;;;;;;;5.40;99.90;5.90;100440.00;;;;348329;27;85586;-87
2022/02/02 00:59:49;;;;;;;;;;;5.40;99.90;6.00;100441.00;;;;348495;27;83352;-87
2022/02/02 01:00:02;;;;;;;;;;;5.40;99.90;5.90;100442.00;;;;349789;27;87857;-87
2022/02/02 01:00:14;;;;;;;;;;;5.40;99.90;5.90;100438.00;;;;348557;27;83374;-87
2022/02/02 01:00:26;;;;;;;;;;;5.40;99.90;5.90;100448.00;;;;345610;28;84181;-87
2022/02/02 01:00:38;;;;;;;;;;;5.40;99.90;5.90;100450.00;;;;348499;27;83076;-87
2022/02/02 01:00:50;;;;;;;;;;;5.40;99.90;5.90;100449.00;;;;347366;27;84722;-87
2022/02/02 01:01:01;;;;;;;;;;;5.40;99.90;5.90;100449.00;;;;348579;27;83352;-87
2022/02/02 01:01:13;;;;;;;;;;;5.40;99.90;6.00;100450.00;;;;348305;27;84059;-87
2022/02/02 01:01:25;;;;;;;;;;;5.40;99.90;6.00;100445.00;;;;349356;27;83449;-87
2022/02/02 01:01:38;;;;;;;;;;;5.40;99.90;6.00;100445.00;;;;348279;27;86151;-87
2022/02/02 01:01:50;;;;;;;;;;;5.40;99.90;6.10;100448.00;;;;345639;28;83432;-87
2022/02/02 01:02:03;;;;;;;;;;;5.40;99.90;6.10;100443.00;;;;345629;28;87164;-87
2022/02/02 01:02:14;;;;;;;;;;;5.40;99.90;6.20;100445.00;;;;345664;28;83253;-87
2022/02/02 01:02:26;;;;;;;;;;;5.40;99.90;6.20;100444.00;;;;346973;28;85352;-87
2022/02/02 01:02:38;;;;;;;;;;;5.50;99.90;6.20;100441.00;;;;347007;28;83501;-87
2022/02/02 01:02:50;;;;;;;;;;;5.50;99.90;6.20;100452.00;;;;347008;28;85289;-87
2022/02/02 01:03:01;;;;;;;;;;;5.50;99.90;6.10;100444.00;;;;347149;28;82305;-87
2022/02/02 01:03:13;;;;;;;;;;;5.50;99.90;6.00;100443.00;;;;346917;28;86344;-87
2022/02/02 01:03:27;;;;;;;;;;;5.50;99.90;6.00;100452.00;;;;345816;28;82473;-86
2022/02/02 01:03:39;;;;;;;;;;;5.50;99.90;5.90;100446.00;;;;346969;28;87507;-87
2022/02/02 01:03:51;;;;;;;;;;;5.50;99.90;5.90;100450.00;;;;347318;27;83317;-86
2022/02/02 01:04:03;;;;;;;;;;;5.40;99.90;5.90;100449.00;;;;346834;28;87445;-87
2022/02/02 01:04:15;;;;;;;;;;;5.50;99.90;5.80;100448.00;;;;347091;28;83377;-87
2022/02/02 01:04:27;;;;;;;;;;;5.50;99.90;5.80;100447.00;;;;348160;27;87572;-87
2022/02/02 01:04:38;;;;;;;;;;;5.40;99.90;5.80;100448.00;;;;345506;28;83399;-87
2022/02/02 01:04:50;;;;;;;;;;;5.40;99.90;5.70;100451.00;;;;346873;27;86092;-87
2022/02/02 01:05:02;;;;;;;;;;;5.40;99.90;5.70;100454.00;;;;348528;27;83178;-87
2022/02/02 01:05:14;;;;;;;;;;;5.40;99.90;5.70;100458.00;;;;348352;27;87167;-87
2022/02/02 01:05:26;;;;;;;;;;;5.40;99.90;5.70;100456.00;;;;345640;28;83215;-87
2022/02/02 01:05:38;;;;;;;;;;;5.40;99.90;5.70;100450.00;;;;348360;27;87476;-87
2022/02/02 01:05:49;;;;;;;;;;;5.40;99.90;5.80;100446.00;;;;347031;28;83287;-86
2022/02/02 01:06:02;;;;;;;;;;;5.40;99.90;5.80;100448.00;;;;349761;27;86941;-87
2022/02/02 01:06:18;;;;;;;;;;;5.40;99.90;5.90;100443.00;;;;348525;27;82384;-88
2022/02/02 01:06:33;;;;;;;;;;;5.40;99.90;5.90;100452.00;;;;351139;27;87939;-87
2022/02/02 01:06:59;;;;;;;;;;;5.40;99.90;5.90;100449.00;;;;348507;27;83211;-87
2022/02/02 01:07:28;;;;;;;;;;;5.40;99.90;5.80;100450.00;;;;345490;28;85281;-87
2022/02/02 01:08:37;;;;;;;;;;;5.40;99.90;5.90;100453.00;;;;345573;28;88352;-87
2022/02/02 01:09:34;;;;;;;;;;;5.40;99.90;5.70;100444.00;;;;351348;27;82686;-87
2022/02/02 01:09:53;;;;;;;;;;;5.40;99.90;5.70;100443.00;;;;348455;27;85439;-87
2022/02/02 01:10:16;;;;;;;;;;;5.30;99.90;5.70;100439.00;;;;346020;28;83287;-87
2022/02/02 01:10:43;;;;;;;;;;;5.40;99.90;5.60;100446.00;;;;346947;28;87396;-87
2022/02/02 01:11:12;;;;;;;;;;;5.30;99.90;5.60;100435.00;;;;346337;28;85289;-87
2022/02/02 01:12:19;;;;;;;;;;;5.30;99.90;5.60;100443.00;;;;348289;27;87081;-87
2022/02/02 01:13:05;;;;;;;;;;;5.30;99.90;5.60;100447.00;;;;348174;27;84570;-87
2022/02/02 01:20:04;;;;;;;;;;;5.30;99.90;5.70;100455.00;;;;344268;28;83389;-86
2022/02/02 01:20:51;;;;;;;;;;;5.30;99.90;5.80;100443.00;;;;336071;28;83360;-86
2022/02/02 01:21:16;;;;;;;;;;;5.30;99.90;5.90;100447.00;;;;337278;28;86164;-87
2022/02/02 01:21:32;;;;;;;;;;;5.30;99.90;6.00;100450.00;;;;337391;28;83207;-87
2022/02/02 01:22:18;;;;;;;;;;;5.30;99.90;5.90;100446.00;;;;338719;28;83431;-87
2022/02/02 01:27:51;;;;;;;;;;;5.30;99.90;5.90;100443.00;;;;337211;28;85915;-86
2022/02/02 01:28:03;;;;;;;;;;;5.30;99.90;5.80;100446.00;;;;336694;28;82437;-87
2022/02/02 01:28:14;;;;;;;;;;;5.30;99.90;5.70;100444.00;;;;342768;28;87769;-87
2022/02/02 01:28:26;;;;;;;;;;;5.30;99.90;5.70;100447.00;;;;342852;28;83265;-87
2022/02/02 01:28:39;;;;;;;;;;;5.30;99.90;5.70;100445.00;;;;341437;28;88274;-87
2022/02/02 01:28:51;;;;;;;;;;;5.30;99.90;5.60;100448.00;;;;339603;28;83590;-86
2022/02/02 01:29:03;;;;;;;;;;;5.30;99.90;5.70;100459.00;;;;333331;29;85274;-87
2022/02/02 01:29:15;;;;;;;;;;;5.30;99.90;5.60;100457.00;;;;334684;29;83383;-87
2022/02/02 01:29:27;;;;;;;;;;;5.20;99.90;5.60;100457.00;;;;335948;29;86202;-87
2022/02/02 01:29:38;;;;;;;;;;;5.20;99.90;5.50;100462.00;;;;334792;29;82425;-86
2022/02/02 01:29:50;;;;;;;;;;;5.20;99.90;5.60;100463.00;;;;335809;28;88104;-86
2022/02/02 01:30:03;;;;;;;;;;;5.20;99.90;5.50;100459.00;;;;334902;29;82440;-86
2022/02/02 01:30:15;;;;;;;;;;;5.20;99.90;5.60;100467.00;;;;333393;29;84803;-87
2022/02/02 01:30:27;;;;;;;;;;;5.20;99.90;5.60;100462.00;;;;333425;29;83297;-86
2022/02/02 01:30:39;;;;;;;;;;;5.20;99.90;5.50;100461.00;;;;335852;28;87414;-86
2022/02/02 01:30:51;;;;;;;;;;;5.20;99.90;5.60;100457.00;;;;333681;29;82533;-86
2022/02/02 01:31:03;;;;;;;;;;;5.20;99.90;5.60;100457.00;;;;339822;28;86057;-87
2022/02/02 01:31:16;;;;;;;;;;;5.20;99.90;5.70;100457.00;;;;335033;29;83179;-87
2022/02/02 01:31:28;;;;;;;;;;;5.20;99.90;5.80;100452.00;;;;334967;29;86023;-87
2022/02/02 01:31:40;;;;;;;;;;;5.20;99.90;5.80;100447.00;;;;333920;29;83344;-87
2022/02/02 01:31:53;;;;;;;;;;;5.20;99.90;5.80;100442.00;;;;333717;28;84104;-86
2022/02/02 01:32:05;;;;;;;;;;;5.20;99.90;5.90;100452.00;;;;334950;28;83434;-87
2022/02/02 01:32:17;;;;;;;;;;;5.20;99.90;5.90;100443.00;;;;339266;28;86805;-87
2022/02/02 01:32:29;;;;;;;;;;;5.20;99.90;5.90;100449.00;;;;339254;28;83381;-86
2022/02/02 01:32:41;;;;;;;;;;;5.20;99.90;5.90;100441.00;;;;332492;29;87331;-87
2022/02/02 01:32:52;;;;;;;;;;;5.20;99.90;5.80;100448.00;;;;333929;29;83436;-87
2022/02/02 01:33:04;;;;;;;;;;;5.20;99.90;5.80;100451.00;;;;331282;29;87432;-87
2022/02/02 01:33:16;;;;;;;;;;;5.20;99.90;5.70;100451.00;;;;332686;29;83355;-87
2022/02/02 01:33:31;;;;;;;;;;;5.20;99.90;5.70;100458.00;;;;332603;29;83301;-87
2022/02/02 01:33:43;;;;;;;;;;;5.20;99.90;5.60;100458.00;;;;335233;29;83313;-86
2022/02/02 01:33:54;;;;;;;;;;;5.20;99.90;5.60;100454.00;;;;334418;29;84603;-87
2022/02/02 01:34:06;;;;;;;;;;;5.20;99.90;5.60;100460.00;;;;335033;28;83245;-86
2022/02/02 01:34:18;;;;;;;;;;;5.20;99.90;5.60;100461.00;;;;337642;28;83953;-86
2022/02/02 01:34:30;;;;;;;;;;;5.20;99.90;5.60;100456.00;;;;335145;29;83370;-86
2022/02/02 01:34:41;;;;;;;;;;;5.20;99.90;5.50;100461.00;;;;333822;29;85734;-86
2022/02/02 01:34:54;;;;;;;;;;;5.20;99.90;5.60;100459.00;;;;333829;29;83307;-87
2022/02/02 01:35:13;;;;;;;;;;;5.10;99.90;5.50;100462.00;;;;335099;29;87965;-86
2022/02/02 01:35:26;;;;;;;;;;;5.20;99.90;5.60;100467.00;;;;336505;28;82532;-87
2022/02/02 01:35:38;;;;;;;;;;;5.20;99.90;5.70;100454.00;;;;335119;29;87233;-87
2022/02/02 01:35:50;;;;;;;;;;;5.20;99.90;5.70;100451.00;;;;335184;29;83253;-85
2022/02/02 01:36:03;;;;;;;;;;;5.10;99.90;5.70;100453.00;;;;335098;29;86258;-87
2022/02/02 01:36:15;;;;;;;;;;;5.20;99.90;5.70;100456.00;;;;333974;29;82290;-86
2022/02/02 01:36:27;;;;;;;;;;;5.20;99.90;5.80;100448.00;;;;335159;29;87303;-87
2022/02/02 01:36:40;;;;;;;;;;;5.20;99.90;5.80;100445.00;;;;333855;29;83543;-87
2022/02/02 01:36:52;;;;;;;;;;;5.20;99.90;5.70;100449.00;;;;337346;28;84953;-87
2022/02/02 01:37:03;;;;;;;;;;;5.20;99.90;5.80;100454.00;;;;340678;28;83347;-87
2022/02/02 01:37:17;;;;;;;;;;;5.20;99.90;5.80;100452.00;;;;340413;28;85203;-86
2022/02/02 01:37:30;;;;;;;;;;;5.20;99.90;5.70;100446.00;;;;333987;29;83118;-87
2022/02/02 01:37:43;;;;;;;;;;;5.20;99.90;5.60;100455.00;;;;333835;29;85191;-86
2022/02/02 01:37:58;;;;;;;;;;;5.20;99.90;5.60;100453.00;;;;333786;29;83454;-86
2022/02/02 01:38:10;;;;;;;;;;;5.20;99.90;5.60;100459.00;;;;335142;29;87522;-87
2022/02/02 01:38:25;;;;;;;;;;;5.10;99.90;5.60;100452.00;;;;333894;29;82666;-87
2022/02/02 01:38:37;;;;;;;;;;;5.20;99.90;5.60;100451.00;;;;335006;29;86270;-87
2022/02/02 01:38:51;;;;;;;;;;;5.20;99.90;5.70;100456.00;;;;336458;28;83326;-87
2022/02/02 01:39:05;;;;;;;;;;;5.10;99.90;5.70;100456.00;;;;333861;29;85330;-87
2022/02/02 01:39:18;;;;;;;;;;;5.20;99.90;5.70;100457.00;;;;335180;29;83333;-87
2022/02/02 01:39:31;;;;;;;;;;;5.20;99.90;5.60;100452.00;;;;335101;29;87301;-86
2022/02/02 01:39:44;;;;;;;;;;;5.20;99.90;5.60;100457.00;;;;333780;29;83416;-87
2022/02/02 01:40:01;;;;;;;;;;;5.10;99.90;5.60;100450.00;;;;336314;28;85943;-87